sensor_id;sensor_type;location;lat;lon;timestamp;pressure;altitude;pressure_sealevel;temperature;humidity
49311;BME280;35177;45.900;5.946;2023-03-18T00:00:41;97371.00;;;5.18;100.00
49311;BME280;35177;45.900;5.946;2023-03-18T00:03:08;97367.72;;;5.16;100.00
49311;BME280;35177;45.900;5.946;2023-03-18T00:05:33;97362.75;;;5.18;100.00
49311;BME280;35177;45.900;5.946;2023-03-18T00:08:00;97367.72;;;5.16;100.00
49311;BME280;35177;45.900;5.946;2023-03-18T00:10:27;97352.28;;;5.20;100.00
49311;BME280;35177;45.900;5.946;2023-03-18T00:12:52;97357.72;;;4.91;100.00
49311;BME280;35177;45.900;5.946;2023-03-18T00:15:19;97360.03;;;4.73;100.00
49311;BME280;35177;45.900;5.946;2023-03-18T00:17:45;97366.88;;;4.76;100.00
49311;BME280;35177;45.900;5.946;2023-03-18T00:20:13;97362.50;;;4.75;100.00
49311;BME280;35177;45.900;5.946;2023-03-18T00:22:41;97365.97;;;4.91;100.00
49311;BME280;35177;45.900;5.946;2023-03-18T00:25:09;97360.13;;;4.97;100.00
49311;BME280;35177;45.900;5.946;2023-03-18T00:27:35;97357.03;;;5.09;100.00
49311;BME280;35177;45.900;5.946;2023-03-18T00:30:03;97355.53;;;4.93;100.00
49311;BME280;35177;45.900;5.946;2023-03-18T00:32:30;97348.38;;;4.92;100.00
49311;BME280;35177;45.900;5.946;2023-03-18T00:34:57;97352.63;;;4.69;100.00
49311;BME280;35177;45.900;5.946;2023-03-18T00:37:24;97342.31;;;4.90;100.00
49311;BME280;35177;45.900;5.946;2023-03-18T00:40:00;97343.00;;;4.71;100.00
49311;BME280;35177;45.900;5.946;2023-03-18T00:42:35;97339.25;;;4.96;100.00
49311;BME280;35177;45.900;5.946;2023-03-18T00:45:08;97338.44;;;4.96;100.00
49311;BME280;35177;45.900;5.946;2023-03-18T00:47:35;97326.41;;;4.81;100.00
49311;BME280;35177;45.900;5.946;2023-03-18T00:50:03;97336.22;;;4.48;100.00
49311;BME280;35177;45.900;5.946;2023-03-18T00:52:29;97333.19;;;4.49;100.00
49311;BME280;35177;45.900;5.946;2023-03-18T00:54:55;97335.91;;;4.60;100.00
49311;BME280;35177;45.900;5.946;2023-03-18T00:57:20;97333.44;;;4.58;100.00
49311;BME280;35177;45.900;5.946;2023-03-18T00:59:46;97325.13;;;4.69;100.00
49311;BME280;35177;45.900;5.946;2023-03-18T01:02:13;97331.28;;;4.50;100.00
49311;BME280;35177;45.900;5.946;2023-03-18T01:04:38;97319.84;;;4.27;100.00
49311;BME280;35177;45.900;5.946;2023-03-18T01:07:04;97315.78;;;4.14;100.00
49311;BME280;35177;45.900;5.946;2023-03-18T01:09:30;97319.97;;;3.96;100.00
49311;BME280;35177;45.900;5.946;2023-03-18T01:11:56;97309.84;;;3.81;100.00
49311;BME280;35177;45.900;5.946;2023-03-18T01:14:21;97309.84;;;3.81;100.00
49311;BME280;35177;45.900;5.946;2023-03-18T01:16:47;97315.00;;;4.04;100.00
49311;BME280;35177;45.900;5.946;2023-03-18T01:19:13;97312.19;;;4.14;100.00
49311;BME280;35177;45.900;5.946;2023-03-18T01:21:40;97300.13;;;4.15;100.00
49311;BME280;35177;45.900;5.946;2023-03-18T01:24:06;97303.66;;;4.26;100.00
49311;BME280;35177;45.900;5.946;2023-03-18T01:26:31;97297.38;;;4.15;100.00
49311;BME280;35177;45.900;5.946;2023-03-18T01:28:57;97291.72;;;4.46;100.00
49311;BME280;35177;45.900;5.946;2023-03-18T01:31:23;97297.09;;;4.22;100.00
49311;BME280;35177;45.900;5.946;2023-03-18T01:33:50;97300.94;;;4.21;100.00
49311;BME280;35177;45.900;5.946;2023-03-18T01:36:16;97302.81;;;4.30;100.00
49311;BME280;35177;45.900;5.946;2023-03-18T01:38:42;97301.34;;;4.43;100.00
49311;BME280;35177;45.900;5.946;2023-03-18T01:41:09;97294.47;;;4.51;100.00
49311;BME280;35177;45.900;5.946;2023-03-18T01:43:37;97293.84;;;4.59;100.00
49311;BME280;35177;45.900;5.946;2023-03-18T01:46:32;97288.72;;;4.47;100.00
49311;BME280;35177;45.900;5.946;2023-03-18T01:48:59;97295.00;;;3.93;100.00
49311;BME280;35177;45.900;5.946;2023-03-18T01:51:26;97296.72;;;3.63;100.00
49311;BME280;35177;45.900;5.946;2023-03-18T01:53:54;97285.22;;;3.50;100.00
49311;BME280;35177;45.900;5.946;2023-03-18T01:56:22;97291.50;;;3.56;100.00
49311;BME280;35177;45.900;5.946;2023-03-18T01:58:53;97293.88;;;3.94;100.00
49311;BME280;35177;45.900;5.946;2023-03-18T02:01:26;97294.19;;;3.82;100.00
49311;BME280;35177;45.900;5.946;2023-03-18T02:03:54;97298.91;;;3.66;100.00
49311;BME280;35177;45.900;5.946;2023-03-18T02:06:21;97291.00;;;3.54;100.00
49311;BME280;35177;45.900;5.946;2023-03-18T02:08:47;97287.97;;;3.50;100.00
49311;BME280;35177;45.900;5.946;2023-03-18T02:11:13;97287.13;;;3.55;100.00
49311;BME280;35177;45.900;5.946;2023-03-18T02:13:41;97287.19;;;3.09;100.00
49311;BME280;35177;45.900;5.946;2023-03-18T02:16:36;97280.84;;;3.34;100.00
49311;BME280;35177;45.900;5.946;2023-03-18T02:19:25;97291.03;;;3.13;100.00
49311;BME280;35177;45.900;5.946;2023-03-18T02:24:43;97290.22;;;2.92;100.00
49311;BME280;35177;45.900;5.946;2023-03-18T02:27:26;97290.47;;;2.75;100.00
49311;BME280;35177;45.900;5.946;2023-03-18T02:29:56;97298.44;;;2.86;100.00
49311;BME280;35177;45.900;5.946;2023-03-18T02:32:30;97297.03;;;2.63;100.00
49311;BME280;35177;45.900;5.946;2023-03-18T02:34:59;97292.91;;;2.66;100.00
49311;BME280;35177;45.900;5.946;2023-03-18T02:37:25;97288.53;;;2.60;100.00
49311;BME280;35177;45.900;5.946;2023-03-18T02:39:51;97296.97;;;2.48;100.00
49311;BME280;35177;45.900;5.946;2023-03-18T02:42:30;97298.34;;;2.40;100.00
49311;BME280;35177;45.900;5.946;2023-03-18T02:44:56;97296.69;;;2.34;100.00
49311;BME280;35177;45.900;5.946;2023-03-18T02:47:24;97301.94;;;2.56;100.00
49311;BME280;35177;45.900;5.946;2023-03-18T02:49:50;97308.22;;;2.62;100.00
49311;BME280;35177;45.900;5.946;2023-03-18T02:52:16;97310.72;;;2.63;100.00
49311;BME280;35177;45.900;5.946;2023-03-18T02:54:41;97308.78;;;2.64;100.00
49311;BME280;35177;45.900;5.946;2023-03-18T02:57:07;97309.06;;;2.62;100.00
49311;BME280;35177;45.900;5.946;2023-03-18T02:59:33;97303.31;;;2.59;100.00
49311;BME280;35177;45.900;5.946;2023-03-18T03:01:58;97306.75;;;2.13;100.00
49311;BME280;35177;45.900;5.946;2023-03-18T03:04:25;97307.78;;;2.01;100.00
49311;BME280;35177;45.900;5.946;2023-03-18T03:06:52;97302.00;;;1.92;100.00
49311;BME280;35177;45.900;5.946;2023-03-18T03:09:18;97300.09;;;1.93;100.00
49311;BME280;35177;45.900;5.946;2023-03-18T03:11:45;97304.28;;;2.16;100.00
49311;BME280;35177;45.900;5.946;2023-03-18T03:14:11;97307.84;;;2.17;100.00
49311;BME280;35177;45.900;5.946;2023-03-18T03:16:37;97300.75;;;2.26;100.00
49311;BME280;35177;45.900;5.946;2023-03-18T03:19:04;97305.44;;;2.36;100.00
49311;BME280;35177;45.900;5.946;2023-03-18T03:21:30;97301.66;;;2.47;100.00
49311;BME280;35177;45.900;5.946;2023-03-18T03:23:57;97309.22;;;2.14;100.00
49311;BME280;35177;45.900;5.946;2023-03-18T03:26:24;97295.81;;;2.13;100.00
49311;BME280;35177;45.900;5.946;2023-03-18T03:28:49;97299.56;;;2.01;100.00
49311;BME280;35177;45.900;5.946;2023-03-18T03:31:16;97300.38;;;1.97;100.00
49311;BME280;35177;45.900;5.946;2023-03-18T03:33:42;97306.13;;;2.00;100.00
49311;BME280;35177;45.900;5.946;2023-03-18T03:36:13;97317.84;;;1.90;100.00
49311;BME280;35177;45.900;5.946;2023-03-18T03:38:38;97303.69;;;2.04;100.00
49311;BME280;35177;45.900;5.946;2023-03-18T03:41:06;97310.09;;;2.35;100.00
49311;BME280;35177;45.900;5.946;2023-03-18T03:43:35;97310.97;;;2.46;100.00
49311;BME280;35177;45.900;5.946;2023-03-18T03:46:00;97314.78;;;2.40;100.00
49311;BME280;35177;45.900;5.946;2023-03-18T03:48:26;97299.44;;;2.39;100.00
49311;BME280;35177;45.900;5.946;2023-03-18T03:50:52;97305.13;;;2.17;100.00
49311;BME280;35177;45.900;5.946;2023-03-18T03:53:19;97308.25;;;1.83;100.00
49311;BME280;35177;45.900;5.946;2023-03-18T03:55:44;97308.03;;;1.89;100.00
49311;BME280;35177;45.900;5.946;2023-03-18T03:58:10;97305.50;;;1.83;100.00
49311;BME280;35177;45.900;5.946;2023-03-18T04:00:35;97306.53;;;1.66;100.00
49311;BME280;35177;45.900;5.946;2023-03-18T04:03:01;97310.69;;;1.79;100.00
49311;BME280;35177;45.900;5.946;2023-03-18T04:05:26;97303.81;;;1.71;100.00
49311;BME280;35177;45.900;5.946;2023-03-18T04:07:53;97303.19;;;1.59;100.00
49311;BME280;35177;45.900;5.946;2023-03-18T04:10:20;97318.25;;;1.62;100.00
49311;BME280;35177;45.900;5.946;2023-03-18T04:12:47;97315.53;;;1.67;100.00
49311;BME280;35177;45.900;5.946;2023-03-18T04:15:14;97304.59;;;1.67;100.00
49311;BME280;35177;45.900;5.946;2023-03-18T04:17:40;97306.34;;;1.83;100.00
49311;BME280;35177;45.900;5.946;2023-03-18T04:20:07;97311.91;;;1.56;100.00
49311;BME280;35177;45.900;5.946;2023-03-18T04:22:32;97310.97;;;1.35;100.00
49311;BME280;35177;45.900;5.946;2023-03-18T04:24:58;97312.69;;;1.46;100.00
49311;BME280;35177;45.900;5.946;2023-03-18T04:27:25;97319.59;;;1.16;100.00
49311;BME280;35177;45.900;5.946;2023-03-18T04:29:52;97320.09;;;1.13;100.00
49311;BME280;35177;45.900;5.946;2023-03-18T04:32:18;97315.22;;;1.20;100.00
49311;BME280;35177;45.900;5.946;2023-03-18T04:34:43;97323.06;;;1.06;100.00
49311;BME280;35177;45.900;5.946;2023-03-18T04:37:09;97320.19;;;1.23;100.00
49311;BME280;35177;45.900;5.946;2023-03-18T04:39:36;97327.84;;;1.26;100.00
49311;BME280;35177;45.900;5.946;2023-03-18T04:42:01;97330.38;;;1.33;100.00
49311;BME280;35177;45.900;5.946;2023-03-18T04:44:27;97326.03;;;1.37;100.00
49311;BME280;35177;45.900;5.946;2023-03-18T04:46:53;97319.31;;;1.18;100.00
49311;BME280;35177;45.900;5.946;2023-03-18T04:49:19;97319.56;;;1.11;100.00
49311;BME280;35177;45.900;5.946;2023-03-18T04:51:45;97310.75;;;1.04;100.00
49311;BME280;35177;45.900;5.946;2023-03-18T04:54:11;97320.75;;;1.25;100.00
49311;BME280;35177;45.900;5.946;2023-03-18T04:56:37;97316.59;;;1.18;100.00
49311;BME280;35177;45.900;5.946;2023-03-18T04:59:04;97320.34;;;1.44;100.00
49311;BME280;35177;45.900;5.946;2023-03-18T05:01:29;97317.53;;;1.34;100.00
49311;BME280;35177;45.900;5.946;2023-03-18T05:03:55;97318.91;;;0.99;100.00
49311;BME280;35177;45.900;5.946;2023-03-18T05:06:23;97319.25;;;1.07;100.00
49311;BME280;35177;45.900;5.946;2023-03-18T05:08:49;97328.50;;;1.01;100.00
49311;BME280;35177;45.900;5.946;2023-03-18T05:11:17;97315.63;;;1.02;100.00
49311;BME280;35177;45.900;5.946;2023-03-18T05:13:43;97320.56;;;1.00;100.00
49311;BME280;35177;45.900;5.946;2023-03-18T05:16:08;97320.56;;;0.72;100.00
49311;BME280;35177;45.900;5.946;2023-03-18T05:18:34;97332.75;;;0.59;100.00
49311;BME280;35177;45.900;5.946;2023-03-18T05:21:00;97316.25;;;0.76;100.00
49311;BME280;35177;45.900;5.946;2023-03-18T05:23:27;97318.69;;;0.73;100.00
49311;BME280;35177;45.900;5.946;2023-03-18T05:25:53;97325.72;;;0.69;100.00
49311;BME280;35177;45.900;5.946;2023-03-18T05:28:18;97322.63;;;0.60;100.00
49311;BME280;35177;45.900;5.946;2023-03-18T05:30:44;97325.72;;;0.69;100.00
49311;BME280;35177;45.900;5.946;2023-03-18T05:33:09;97325.72;;;0.96;100.00
49311;BME280;35177;45.900;5.946;2023-03-18T05:35:35;97332.16;;;0.85;100.00
49311;BME280;35177;45.900;5.946;2023-03-18T05:38:01;97335.72;;;0.85;100.00
49311;BME280;35177;45.900;5.946;2023-03-18T05:40:26;97330.56;;;0.61;100.00
49311;BME280;35177;45.900;5.946;2023-03-18T05:42:52;97327.41;;;1.02;100.00
49311;BME280;35177;45.900;5.946;2023-03-18T05:45:17;97343.38;;;0.88;100.00
49311;BME280;35177;45.900;5.946;2023-03-18T05:47:44;97334.38;;;0.88;100.00
49311;BME280;35177;45.900;5.946;2023-03-18T05:50:09;97343.56;;;0.76;100.00
49311;BME280;35177;45.900;5.946;2023-03-18T05:52:36;97344.91;;;0.74;100.00
49311;BME280;35177;45.900;5.946;2023-03-18T05:55:02;97336.09;;;0.67;100.00
49311;BME280;35177;45.900;5.946;2023-03-18T05:57:28;97332.25;;;0.95;100.00
49311;BME280;35177;45.900;5.946;2023-03-18T05:59:54;97328.78;;;1.05;100.00
49311;BME280;35177;45.900;5.946;2023-03-18T06:02:19;97327.44;;;1.07;100.00
49311;BME280;35177;45.900;5.946;2023-03-18T06:04:45;97328.88;;;1.15;100.00
49311;BME280;35177;45.900;5.946;2023-03-18T06:07:10;97335.47;;;1.19;100.00
49311;BME280;35177;45.900;5.946;2023-03-18T06:09:36;97330.72;;;1.42;100.00
49311;BME280;35177;45.900;5.946;2023-03-18T06:12:02;97328.47;;;1.39;100.00
49311;BME280;35177;45.900;5.946;2023-03-18T06:14:28;97330.72;;;1.42;100.00
49311;BME280;35177;45.900;5.946;2023-03-18T06:16:57;97333.88;;;1.28;100.00
49311;BME280;35177;45.900;5.946;2023-03-18T06:19:24;97343.75;;;1.67;100.00
49311;BME280;35177;45.900;5.946;2023-03-18T06:21:50;97341.41;;;1.97;100.00
49311;BME280;35177;45.900;5.946;2023-03-18T06:24:17;97346.38;;;2.05;100.00
49311;BME280;35177;45.900;5.946;2023-03-18T06:26:42;97351.94;;;2.15;100.00
49311;BME280;35177;45.900;5.946;2023-03-18T06:29:08;97357.13;;;2.12;100.00
49311;BME280;35177;45.900;5.946;2023-03-18T06:31:35;97360.69;;;2.22;100.00
49311;BME280;35177;45.900;5.946;2023-03-18T06:34:02;97354.41;;;2.27;100.00
49311;BME280;35177;45.900;5.946;2023-03-18T06:36:29;97361.63;;;2.49;100.00
49311;BME280;35177;45.900;5.946;2023-03-18T06:38:55;97354.06;;;2.92;100.00
49311;BME280;35177;45.900;5.946;2023-03-18T06:41:20;97338.88;;;3.98;100.00
49311;BME280;35177;45.900;5.946;2023-03-18T06:43:46;97339.66;;;4.79;100.00
49311;BME280;35177;45.900;5.946;2023-03-18T06:46:15;97341.03;;;5.17;100.00
49311;BME280;35177;45.900;5.946;2023-03-18T06:48:40;97335.47;;;5.56;100.00
49311;BME280;35177;45.900;5.946;2023-03-18T06:51:06;97332.47;;;5.53;100.00
49311;BME280;35177;45.900;5.946;2023-03-18T06:53:32;97340.88;;;5.96;100.00
49311;BME280;35177;45.900;5.946;2023-03-18T06:55:58;97350.16;;;6.54;100.00
49311;BME280;35177;45.900;5.946;2023-03-18T06:58:24;97335.13;;;6.65;100.00
49311;BME280;35177;45.900;5.946;2023-03-18T07:00:50;97333.03;;;6.95;100.00
49311;BME280;35177;45.900;5.946;2023-03-18T07:03:16;97335.94;;;7.23;100.00
49311;BME280;35177;45.900;5.946;2023-03-18T07:05:41;97343.63;;;7.59;100.00
49311;BME280;35177;45.900;5.946;2023-03-18T07:08:07;97346.53;;;7.68;100.00
49311;BME280;35177;45.900;5.946;2023-03-18T07:10:33;97346.31;;;7.64;100.00
49311;BME280;35177;45.900;5.946;2023-03-18T07:12:59;97335.00;;;7.80;100.00
49311;BME280;35177;45.900;5.946;2023-03-18T07:15:26;97336.28;;;8.01;100.00
49311;BME280;35177;45.900;5.946;2023-03-18T07:17:52;97334.84;;;8.18;100.00
49311;BME280;35177;45.900;5.946;2023-03-18T07:20:18;97336.72;;;8.50;100.00
49311;BME280;35177;45.900;5.946;2023-03-18T07:22:45;97336.47;;;7.58;100.00
49311;BME280;35177;45.900;5.946;2023-03-18T07:25:11;97336.97;;;7.46;100.00
49311;BME280;35177;45.900;5.946;2023-03-18T07:27:39;97342.06;;;8.47;100.00
49311;BME280;35177;45.900;5.946;2023-03-18T07:30:06;97336.69;;;9.15;100.00
49311;BME280;35177;45.900;5.946;2023-03-18T07:32:34;97330.66;;;9.36;100.00
49311;BME280;35177;45.900;5.946;2023-03-18T07:35:02;97338.84;;;9.41;100.00
49311;BME280;35177;45.900;5.946;2023-03-18T07:37:30;97334.63;;;9.66;100.00
49311;BME280;35177;45.900;5.946;2023-03-18T07:39:56;97336.19;;;9.58;100.00
49311;BME280;35177;45.900;5.946;2023-03-18T07:42:21;97335.53;;;9.84;100.00
49311;BME280;35177;45.900;5.946;2023-03-18T07:44:47;97337.09;;;9.68;100.00
49311;BME280;35177;45.900;5.946;2023-03-18T07:47:13;97338.59;;;9.74;100.00
49311;BME280;35177;45.900;5.946;2023-03-18T07:49:39;97346.84;;;9.65;100.00
49311;BME280;35177;45.900;5.946;2023-03-18T07:52:06;97349.03;;;9.31;100.00
49311;BME280;35177;45.900;5.946;2023-03-18T07:54:31;97345.59;;;9.71;100.00
49311;BME280;35177;45.900;5.946;2023-03-18T07:56:57;97340.19;;;9.97;100.00
49311;BME280;35177;45.900;5.946;2023-03-18T07:59:23;97333.91;;;10.15;100.00
49311;BME280;35177;45.900;5.946;2023-03-18T08:01:48;97341.28;;;10.19;100.00
49311;BME280;35177;45.900;5.946;2023-03-18T08:04:14;97338.84;;;10.18;100.00
49311;BME280;35177;45.900;5.946;2023-03-18T08:06:40;97338.59;;;9.74;100.00
49311;BME280;35177;45.900;5.946;2023-03-18T08:09:06;97331.50;;;9.90;100.00
49311;BME280;35177;45.900;5.946;2023-03-18T08:11:33;97336.94;;;9.95;100.00
49311;BME280;35177;45.900;5.946;2023-03-18T08:13:59;97337.78;;;10.05;100.00
49311;BME280;35177;45.900;5.946;2023-03-18T08:16:24;97335.72;;;10.19;100.00
49311;BME280;35177;45.900;5.946;2023-03-18T08:18:51;97336.25;;;10.21;100.00
49311;BME280;35177;45.900;5.946;2023-03-18T08:21:17;97335.34;;;9.80;100.00
49311;BME280;35177;45.900;5.946;2023-03-18T08:23:43;97328.25;;;9.65;100.00
49311;BME280;35177;45.900;5.946;2023-03-18T08:26:09;97338.75;;;10.09;100.00
49311;BME280;35177;45.900;5.946;2023-03-18T08:28:35;97328.06;;;10.56;100.00
49311;BME280;35177;45.900;5.946;2023-03-18T08:31:00;97328.94;;;10.92;100.00
49311;BME280;35177;45.900;5.946;2023-03-18T08:33:28;97325.38;;;11.00;100.00
49311;BME280;35177;45.900;5.946;2023-03-18T08:35:54;97329.31;;;11.43;100.00
49311;BME280;35177;45.900;5.946;2023-03-18T08:38:21;97321.44;;;11.71;100.00
49311;BME280;35177;45.900;5.946;2023-03-18T08:40:48;97326.13;;;11.80;100.00
49311;BME280;35177;45.900;5.946;2023-03-18T08:43:13;97327.28;;;11.87;100.00
49311;BME280;35177;45.900;5.946;2023-03-18T08:45:39;97323.16;;;12.11;100.00
49311;BME280;35177;45.900;5.946;2023-03-18T08:48:05;97318.41;;;11.94;100.00
49311;BME280;35177;45.900;5.946;2023-03-18T08:50:31;97311.53;;;12.18;100.00
49311;BME280;35177;45.900;5.946;2023-03-18T08:52:59;97314.28;;;12.57;100.00
49311;BME280;35177;45.900;5.946;2023-03-18T08:55:29;97316.66;;;12.67;100.00
49311;BME280;35177;45.900;5.946;2023-03-18T08:57:55;97311.97;;;12.59;100.00
49311;BME280;35177;45.900;5.946;2023-03-18T09:00:22;97310.97;;;12.25;100.00
49311;BME280;35177;45.900;5.946;2023-03-18T09:02:48;97323.50;;;12.01;100.00
49311;BME280;35177;45.900;5.946;2023-03-18T09:05:14;97315.66;;;11.85;100.00
49311;BME280;35177;45.900;5.946;2023-03-18T09:07:40;97314.25;;;11.27;100.00
49311;BME280;35177;45.900;5.946;2023-03-18T09:10:05;97316.63;;;10.58;100.00
49311;BME280;35177;45.900;5.946;2023-03-18T09:12:31;97310.81;;;10.86;100.00
49311;BME280;35177;45.900;5.946;2023-03-18T09:14:57;97307.72;;;10.96;100.00
49311;BME280;35177;45.900;5.946;2023-03-18T09:17:23;97323.47;;;10.60;100.00
49311;BME280;35177;45.900;5.946;2023-03-18T09:19:49;97315.72;;;10.31;100.00
49311;BME280;35177;45.900;5.946;2023-03-18T09:22:14;97314.56;;;10.81;100.00
49311;BME280;35177;45.900;5.946;2023-03-18T09:24:41;97310.50;;;11.31;100.00
49311;BME280;35177;45.900;5.946;2023-03-18T09:27:06;97315.16;;;11.83;100.00
49311;BME280;35177;45.900;5.946;2023-03-18T09:29:32;97304.94;;;11.40;100.00
49311;BME280;35177;45.900;5.946;2023-03-18T09:31:57;97303.66;;;12.11;100.00
49311;BME280;35177;45.900;5.946;2023-03-18T09:34:23;97302.94;;;13.13;90.12
49311;BME280;35177;45.900;5.946;2023-03-18T09:36:48;97304.69;;;13.60;90.40
49311;BME280;35177;45.900;5.946;2023-03-18T09:39:19;97294.63;;;15.00;71.76
49311;BME280;35177;45.900;5.946;2023-03-18T09:44:30;97296.16;;;14.36;66.17
